createdAt,value
2022-11-25T00:01:05.000Z,273.71
2022-11-25T00:02:31.000Z,273.77
2022-11-25T00:04:38.000Z,273.77
2022-11-25T00:06:04.000Z,273.77
2022-11-25T00:08:10.000Z,273.77
2022-11-25T00:09:37.000Z,273.77
2022-11-25T00:11:43.000Z,273.77
2022-11-25T00:14:34.000Z,273.65
2022-11-25T00:16:01.000Z,273.59
2022-11-25T00:18:07.000Z,273.59
2022-11-25T00:19:34.000Z,273.65
2022-11-25T00:21:40.000Z,273.71
2022-11-25T00:23:06.000Z,273.65
2022-11-25T00:25:12.000Z,273.65
2022-11-25T00:26:39.000Z,273.71
2022-11-25T00:28:45.000Z,273.65
2022-11-25T00:30:11.000Z,273.65
2022-11-25T00:32:18.000Z,273.52
2022-11-25T00:33:44.000Z,273.59
2022-11-25T00:35:50.000Z,273.52
2022-11-25T00:37:16.000Z,273.46
2022-11-25T00:39:21.000Z,273.46
2022-11-25T00:40:46.000Z,273.52
2022-11-25T00:42:50.000Z,273.4
2022-11-25T00:44:14.000Z,273.4
2022-11-25T00:46:18.000Z,273.46
2022-11-25T00:47:43.000Z,273.46
2022-11-25T00:49:46.000Z,273.4
2022-11-25T00:54:08.000Z,273.4
2022-11-25T00:56:14.000Z,273.46
2022-11-25T00:56:48.000Z,273.46
2022-11-25T00:58:12.000Z,273.52
2022-11-25T01:00:16.000Z,273.52
2022-11-25T01:01:41.000Z,273.59
2022-11-25T01:03:44.000Z,273.59
2022-11-25T01:05:09.000Z,273.52
2022-11-25T01:07:13.000Z,273.46
2022-11-25T01:08:37.000Z,273.46
2022-11-25T01:10:41.000Z,273.46
2022-11-25T01:12:06.000Z,273.52
2022-11-25T01:14:10.000Z,273.65
2022-11-25T01:15:35.000Z,273.65
2022-11-25T01:17:39.000Z,273.59
2022-11-25T01:19:03.000Z,273.59
2022-11-25T01:21:07.000Z,273.46
2022-11-25T01:22:32.000Z,273.52
2022-11-25T01:24:35.000Z,273.46
2022-11-25T01:26:00.000Z,273.52
2022-11-25T01:28:04.000Z,273.52
2022-11-25T01:29:28.000Z,273.46
2022-11-25T01:31:32.000Z,273.52
2022-11-25T01:34:10.000Z,273.4
2022-11-25T01:35:34.000Z,273.4
2022-11-25T01:37:38.000Z,273.4
2022-11-25T01:39:02.000Z,273.46
2022-11-25T01:41:06.000Z,273.4
2022-11-25T01:42:30.000Z,273.4
2022-11-25T01:44:34.000Z,273.4
2022-11-25T01:45:59.000Z,273.4
2022-11-25T01:48:02.000Z,273.4
2022-11-25T01:49:27.000Z,273.4
2022-11-25T01:51:30.000Z,273.46
2022-11-25T01:52:55.000Z,273.4
2022-11-25T01:54:58.000Z,273.46
2022-11-25T01:56:23.000Z,273.46
2022-11-25T01:58:26.000Z,273.46
2022-11-25T01:59:51.000Z,273.4
2022-11-25T02:01:54.000Z,273.34
2022-11-25T02:03:19.000Z,273.34
2022-11-25T02:05:22.000Z,273.4
2022-11-25T02:06:53.000Z,273.4
2022-11-25T02:08:56.000Z,273.4
2022-11-25T02:13:18.000Z,273.46
2022-11-25T02:15:16.000Z,273.46
2022-11-25T02:16:40.000Z,273.52
2022-11-25T02:18:44.000Z,273.52
2022-11-25T02:20:09.000Z,273.46
2022-11-25T02:22:12.000Z,273.46
2022-11-25T02:23:37.000Z,273.46
2022-11-25T02:25:40.000Z,273.46
2022-11-25T02:27:05.000Z,273.46
2022-11-25T02:29:08.000Z,273.46
2022-11-25T02:30:33.000Z,273.52
2022-11-25T02:32:36.000Z,273.46
2022-11-25T02:34:01.000Z,273.46
2022-11-25T02:36:05.000Z,273.46
2022-11-25T02:37:29.000Z,273.52
2022-11-25T02:39:33.000Z,273.52
2022-11-25T02:40:57.000Z,273.52
2022-11-25T02:43:01.000Z,273.46
2022-11-25T02:44:25.000Z,273.46
2022-11-25T02:46:29.000Z,273.52
2022-11-25T02:47:53.000Z,273.52
2022-11-25T02:49:57.000Z,273.52
2022-11-25T02:52:46.000Z,273.46
2022-11-25T02:54:11.000Z,273.52
2022-11-25T02:56:14.000Z,273.52
2022-11-25T02:57:39.000Z,273.52
2022-11-25T02:59:42.000Z,273.52
2022-11-25T03:01:07.000Z,273.59
2022-11-25T03:03:10.000Z,273.52
2022-11-25T03:04:35.000Z,273.59
2022-11-25T03:06:39.000Z,273.59
2022-11-25T03:08:04.000Z,273.59
2022-11-25T03:10:08.000Z,273.59
2022-11-25T03:11:32.000Z,273.59
2022-11-25T03:13:36.000Z,273.59
2022-11-25T03:15:01.000Z,273.65
2022-11-25T03:17:07.000Z,273.59
2022-11-25T03:18:33.000Z,273.65
2022-11-25T03:20:39.000Z,273.59
2022-11-25T03:22:06.000Z,273.59
2022-11-25T03:24:10.000Z,273.65
2022-11-25T03:25:37.000Z,273.65
2022-11-25T03:27:43.000Z,273.59
2022-11-25T03:30:34.000Z,273.65
2022-11-25T03:32:00.000Z,273.65
2022-11-25T03:34:13.000Z,273.71
2022-11-25T03:35:39.000Z,273.77
2022-11-25T03:37:46.000Z,273.77
2022-11-25T03:39:12.000Z,273.9
2022-11-25T03:41:18.000Z,273.84
2022-11-25T03:42:45.000Z,273.9
2022-11-25T03:44:51.000Z,273.9
2022-11-25T03:46:17.000Z,274.02
2022-11-25T03:48:23.000Z,273.96
2022-11-25T03:49:50.000Z,273.9
2022-11-25T03:51:56.000Z,273.96
2022-11-25T03:53:23.000Z,273.96
2022-11-25T03:55:29.000Z,273.9
2022-11-25T03:56:55.000Z,273.9
2022-11-25T03:59:01.000Z,273.9
2022-11-25T04:00:28.000Z,273.9
2022-11-25T04:02:34.000Z,274.02
2022-11-25T04:04:00.000Z,273.96
2022-11-25T04:06:06.000Z,274.15
2022-11-25T04:08:57.000Z,274.15
2022-11-25T04:10:24.000Z,274.21
2022-11-25T04:12:30.000Z,274.09
2022-11-25T04:13:56.000Z,274.15
2022-11-25T04:16:02.000Z,274.21
2022-11-25T04:17:29.000Z,274.15
2022-11-25T04:19:35.000Z,274.15
2022-11-25T04:21:01.000Z,274.15
2022-11-25T04:23:08.000Z,274.02
2022-11-25T04:24:34.000Z,274.02
2022-11-25T04:26:41.000Z,274.09
2022-11-25T04:28:07.000Z,274.02
2022-11-25T04:30:13.000Z,274.02
2022-11-25T04:31:40.000Z,274.09
2022-11-25T04:33:46.000Z,274.09
2022-11-25T04:35:17.000Z,274.09
2022-11-25T04:37:23.000Z,274.02
2022-11-25T04:38:49.000Z,274.02
2022-11-25T04:40:55.000Z,273.96
2022-11-25T04:42:22.000Z,274.02
2022-11-25T04:44:28.000Z,274.09
2022-11-25T04:47:19.000Z,274.09
2022-11-25T04:48:45.000Z,274.09
2022-11-25T04:50:51.000Z,274.15
2022-11-25T04:52:18.000Z,274.15
2022-11-25T04:54:24.000Z,274.15
2022-11-25T04:55:51.000Z,274.09
2022-11-25T04:57:57.000Z,274.15
2022-11-25T04:59:23.000Z,274.15
2022-11-25T05:01:29.000Z,274.21
2022-11-25T05:02:56.000Z,274.27
2022-11-25T05:05:02.000Z,274.27
2022-11-25T05:06:29.000Z,274.27
2022-11-25T05:08:35.000Z,274.21
2022-11-25T05:10:01.000Z,274.21
2022-11-25T05:12:07.000Z,274.21
2022-11-25T05:13:34.000Z,274.27
2022-11-25T05:15:40.000Z,274.34
2022-11-25T05:17:07.000Z,274.27
2022-11-25T05:19:13.000Z,274.21
2022-11-25T05:20:39.000Z,274.27
2022-11-25T05:22:45.000Z,274.27
2022-11-25T05:25:36.000Z,274.21
2022-11-25T05:27:03.000Z,274.27
2022-11-25T05:29:09.000Z,274.34
2022-11-25T05:30:36.000Z,274.4
2022-11-25T05:32:42.000Z,274.27
2022-11-25T05:34:08.000Z,274.27
2022-11-25T05:36:14.000Z,274.34
2022-11-25T05:37:41.000Z,274.34
2022-11-25T05:39:47.000Z,274.4
2022-11-25T05:41:13.000Z,274.4
2022-11-25T05:43:20.000Z,274.34
2022-11-25T05:44:46.000Z,274.34
2022-11-25T05:46:52.000Z,274.52
2022-11-25T05:48:19.000Z,274.52
2022-11-25T05:50:25.000Z,274.52
2022-11-25T05:51:52.000Z,274.46
2022-11-25T05:53:58.000Z,274.59
2022-11-25T05:55:24.000Z,274.65
2022-11-25T05:57:30.000Z,274.59
2022-11-25T05:58:57.000Z,274.46
2022-11-25T06:01:03.000Z,274.46
2022-11-25T06:03:54.000Z,274.4
2022-11-25T06:05:21.000Z,274.4
2022-11-25T06:07:27.000Z,274.46
2022-11-25T06:08:53.000Z,274.4
2022-11-25T06:10:59.000Z,274.4
2022-11-25T06:12:26.000Z,274.46
2022-11-25T06:14:32.000Z,274.46
2022-11-25T06:15:59.000Z,274.52
2022-11-25T06:18:11.000Z,274.46
2022-11-25T06:19:38.000Z,274.59
2022-11-25T06:21:44.000Z,274.52
2022-11-25T06:23:11.000Z,274.59
2022-11-25T06:25:17.000Z,274.77
2022-11-25T06:26:43.000Z,274.59
2022-11-25T06:28:49.000Z,274.59
2022-11-25T06:30:16.000Z,274.65
2022-11-25T06:32:22.000Z,274.65
2022-11-25T06:33:48.000Z,274.71
2022-11-25T06:35:54.000Z,274.65
2022-11-25T06:37:21.000Z,274.65
2022-11-25T06:39:27.000Z,274.84
2022-11-25T06:42:18.000Z,274.96
2022-11-25T06:43:45.000Z,275.09
2022-11-25T06:45:51.000Z,275.02
2022-11-25T06:47:17.000Z,275.09
2022-11-25T06:49:23.000Z,274.9
2022-11-25T06:50:50.000Z,274.77
2022-11-25T06:52:56.000Z,274.84
2022-11-25T06:54:23.000Z,274.9
2022-11-25T06:56:29.000Z,274.84
2022-11-25T06:57:55.000Z,274.84
2022-11-25T07:00:24.000Z,274.77
2022-11-25T07:01:50.000Z,274.77
2022-11-25T07:03:57.000Z,274.84
2022-11-25T07:05:23.000Z,274.96
2022-11-25T07:07:29.000Z,274.9
2022-11-25T07:08:56.000Z,274.9
2022-11-25T07:11:02.000Z,275.21
2022-11-25T07:12:29.000Z,274.96
2022-11-25T07:14:35.000Z,274.9
2022-11-25T07:16:01.000Z,274.96
2022-11-25T07:18:08.000Z,275.02
2022-11-25T07:20:59.000Z,275.09
2022-11-25T07:22:25.000Z,275.09
2022-11-25T07:24:31.000Z,275.27
2022-11-25T07:25:59.000Z,275.21
2022-11-25T07:28:05.000Z,275.27
2022-11-25T07:29:31.000Z,275.15
2022-11-25T07:32:07.000Z,275.21
2022-11-25T07:33:35.000Z,275.4
2022-11-25T07:35:41.000Z,275.15
2022-11-25T07:37:08.000Z,275.21
2022-11-25T07:39:14.000Z,275.09
2022-11-25T07:40:40.000Z,275.09
2022-11-25T07:42:46.000Z,275.15
2022-11-25T07:44:13.000Z,275.4
2022-11-25T07:46:19.000Z,275.15
2022-11-25T07:47:51.000Z,275.4
2022-11-25T07:49:57.000Z,275.52
2022-11-25T07:51:24.000Z,275.46
2022-11-25T07:53:30.000Z,275.52
2022-11-25T07:54:56.000Z,275.96
2022-11-25T07:57:02.000Z,275.71
2022-11-25T07:59:53.000Z,275.59
2022-11-25T08:01:20.000Z,275.59
2022-11-25T08:03:26.000Z,275.52
2022-11-25T08:04:53.000Z,275.46
2022-11-25T08:06:59.000Z,275.52
2022-11-25T08:08:25.000Z,275.52
2022-11-25T08:10:32.000Z,275.59
2022-11-25T08:11:58.000Z,275.59
2022-11-25T08:14:04.000Z,275.77
2022-11-25T08:15:31.000Z,275.77
2022-11-25T08:17:37.000Z,275.77
2022-11-25T08:19:03.000Z,275.84
2022-11-25T08:21:09.000Z,276.27
2022-11-25T08:22:36.000Z,276.21
2022-11-25T08:24:42.000Z,276.21
2022-11-25T08:26:09.000Z,276.34
2022-11-25T08:28:15.000Z,276.21
2022-11-25T08:29:41.000Z,276.21
2022-11-25T08:31:47.000Z,276.4
2022-11-25T08:33:14.000Z,276.46
2022-11-25T08:35:20.000Z,276.59
2022-11-25T08:38:11.000Z,276.71
2022-11-25T08:39:38.000Z,276.77
2022-11-25T08:41:57.000Z,276.84
2022-11-25T08:43:24.000Z,276.77
2022-11-25T08:45:33.000Z,276.84
2022-11-25T08:47:00.000Z,277.02
2022-11-25T08:49:06.000Z,277.34
2022-11-25T08:50:33.000Z,277.77
2022-11-25T08:52:39.000Z,277.84
2022-11-25T08:54:05.000Z,277.96
2022-11-25T08:56:11.000Z,277.84
2022-11-25T08:57:38.000Z,277.96
2022-11-25T08:59:44.000Z,278.34
2022-11-25T09:01:10.000Z,278.34
2022-11-25T09:03:16.000Z,278.27
2022-11-25T09:04:43.000Z,278.15
2022-11-25T09:06:49.000Z,278.4
2022-11-25T09:08:16.000Z,278.52
2022-11-25T09:10:22.000Z,278.27
2022-11-25T09:11:48.000Z,278.34
2022-11-25T09:13:54.000Z,278.34
2022-11-25T09:16:46.000Z,278.34
2022-11-25T09:18:12.000Z,278.4
2022-11-25T09:20:18.000Z,278.4
2022-11-25T09:21:45.000Z,278.52
2022-11-25T09:23:51.000Z,278.65
2022-11-25T09:25:18.000Z,278.59
2022-11-25T09:27:24.000Z,278.77
2022-11-25T09:28:50.000Z,278.77
2022-11-25T09:30:56.000Z,278.84
2022-11-25T09:32:23.000Z,278.84
2022-11-25T09:34:29.000Z,278.96
2022-11-25T09:35:56.000Z,278.96
2022-11-25T09:38:02.000Z,278.96
2022-11-25T09:39:28.000Z,278.96
2022-11-25T09:41:34.000Z,279.02
2022-11-25T09:43:01.000Z,279.02
2022-11-25T09:45:07.000Z,279.02
2022-11-25T09:46:33.000Z,279.09
2022-11-25T09:48:40.000Z,279.15
2022-11-25T09:50:06.000Z,279.21
2022-11-25T09:52:12.000Z,279.15
2022-11-25T09:55:03.000Z,279.15
2022-11-25T09:56:30.000Z,279.15
2022-11-25T09:58:36.000Z,279.09
2022-11-25T10:00:02.000Z,279.09
2022-11-25T10:02:09.000Z,279.09
2022-11-25T10:03:35.000Z,279.15
2022-11-25T10:05:41.000Z,279.15
2022-11-25T10:07:08.000Z,279.09
2022-11-25T10:09:14.000Z,279.15
2022-11-25T10:10:40.000Z,279.15
2022-11-25T10:12:47.000Z,279.15
2022-11-25T10:14:13.000Z,279.09
2022-11-25T10:16:19.000Z,279.09
2022-11-25T10:17:46.000Z,279.15
2022-11-25T10:19:52.000Z,279.15
2022-11-25T10:21:18.000Z,279.21
2022-11-25T10:23:25.000Z,279.15
2022-11-25T10:24:53.000Z,279.21
2022-11-25T10:26:59.000Z,279.21
2022-11-25T10:28:25.000Z,279.21
2022-11-25T10:30:31.000Z,279.27
2022-11-25T10:33:22.000Z,279.27
2022-11-25T10:34:49.000Z,279.27
2022-11-25T10:36:55.000Z,279.34
2022-11-25T10:38:21.000Z,279.34
2022-11-25T10:40:28.000Z,279.34
2022-11-25T10:41:54.000Z,279.4
2022-11-25T10:44:00.000Z,279.46
2022-11-25T10:45:27.000Z,279.46
2022-11-25T10:47:33.000Z,279.46
2022-11-25T10:49:00.000Z,279.46
2022-11-25T10:51:06.000Z,279.46
2022-11-25T10:52:32.000Z,279.46
2022-11-25T10:54:38.000Z,279.46
2022-11-25T10:56:06.000Z,279.46
2022-11-25T10:58:12.000Z,279.46
2022-11-25T10:59:38.000Z,279.46
2022-11-25T11:01:45.000Z,279.46
2022-11-25T11:03:11.000Z,279.52
2022-11-25T11:05:17.000Z,279.52
2022-11-25T11:06:44.000Z,279.59
2022-11-25T11:08:50.000Z,279.59
2022-11-25T11:11:41.000Z,279.59
2022-11-25T11:13:08.000Z,279.59
2022-11-25T11:15:14.000Z,279.59
2022-11-25T11:16:40.000Z,279.59
2022-11-25T11:18:47.000Z,279.59
2022-11-25T11:20:13.000Z,279.65
2022-11-25T11:22:19.000Z,279.65
2022-11-25T11:23:46.000Z,279.65
2022-11-25T11:25:52.000Z,279.65
2022-11-25T11:27:18.000Z,279.71
2022-11-25T11:29:24.000Z,279.71
2022-11-25T11:30:51.000Z,279.71
2022-11-25T11:32:57.000Z,279.71
2022-11-25T11:34:24.000Z,279.77
2022-11-25T11:36:30.000Z,279.84
2022-11-25T11:37:56.000Z,279.84
2022-11-25T11:40:02.000Z,279.9
2022-11-25T11:41:29.000Z,279.9
2022-11-25T11:43:35.000Z,279.9
2022-11-25T11:45:01.000Z,279.9
2022-11-25T11:47:08.000Z,279.9
2022-11-25T11:49:59.000Z,279.9
2022-11-25T11:51:25.000Z,279.9
2022-11-25T11:53:32.000Z,279.9
2022-11-25T11:54:58.000Z,279.9
2022-11-25T11:57:04.000Z,279.9
2022-11-25T11:58:31.000Z,279.9
2022-11-25T12:00:37.000Z,279.9
2022-11-25T12:02:03.000Z,279.84
2022-11-25T12:04:09.000Z,279.9
2022-11-25T12:05:36.000Z,279.9
2022-11-25T12:07:42.000Z,279.9
2022-11-25T12:09:09.000Z,279.9
2022-11-25T12:11:15.000Z,279.96
2022-11-25T12:12:41.000Z,279.96
2022-11-25T12:14:47.000Z,280.02
2022-11-25T12:16:14.000Z,280.09
2022-11-25T12:18:20.000Z,280.09
2022-11-25T12:19:47.000Z,280.09
2022-11-25T12:21:53.000Z,280.15
2022-11-25T12:23:19.000Z,280.15
2022-11-25T12:25:25.000Z,280.15
2022-11-25T12:28:17.000Z,280.09
2022-11-25T12:29:43.000Z,280.15
2022-11-25T12:31:49.000Z,280.15
2022-11-25T12:33:16.000Z,280.15
2022-11-25T12:35:22.000Z,280.15
2022-11-25T12:36:49.000Z,280.15
2022-11-25T12:38:55.000Z,280.15
2022-11-25T12:40:21.000Z,280.15
2022-11-25T12:42:27.000Z,280.09
2022-11-25T12:43:54.000Z,280.09
2022-11-25T12:46:00.000Z,280.09
2022-11-25T12:47:27.000Z,280.09
2022-11-25T12:49:33.000Z,280.09
2022-11-25T12:50:59.000Z,280.09
2022-11-25T12:53:05.000Z,280.09
2022-11-25T12:54:32.000Z,280.09
2022-11-25T12:56:39.000Z,280.09
2022-11-25T12:58:05.000Z,280.09
2022-11-25T13:00:11.000Z,280.09
2022-11-25T13:02:06.000Z,280.09
2022-11-25T13:05:45.000Z,280.15
2022-11-25T13:06:19.000Z,280.15
2022-11-25T13:09:04.000Z,280.15
2022-11-25T13:10:30.000Z,280.15
2022-11-25T13:12:36.000Z,280.21
2022-11-25T13:14:03.000Z,280.21
2022-11-25T13:16:10.000Z,280.21
2022-11-25T13:17:37.000Z,280.21
2022-11-25T13:19:44.000Z,280.21
2022-11-25T13:21:10.000Z,280.27
2022-11-25T13:23:16.000Z,280.34
2022-11-25T13:24:43.000Z,280.34
2022-11-25T13:26:49.000Z,280.34
2022-11-25T13:28:16.000Z,280.34
2022-11-25T13:30:22.000Z,280.34
2022-11-25T13:31:48.000Z,280.34
2022-11-25T13:34:02.000Z,280.27
2022-11-25T13:35:29.000Z,280.27
2022-11-25T13:37:35.000Z,280.21
2022-11-25T13:39:02.000Z,280.21
2022-11-25T13:41:08.000Z,280.21
2022-11-25T13:42:34.000Z,280.21
2022-11-25T13:44:40.000Z,280.21
2022-11-25T13:47:31.000Z,280.21
2022-11-25T13:48:58.000Z,280.27
2022-11-25T13:51:04.000Z,280.21
2022-11-25T13:52:36.000Z,280.27
2022-11-25T13:54:42.000Z,280.27
2022-11-25T13:56:08.000Z,280.34
2022-11-25T13:58:14.000Z,280.34
2022-11-25T13:59:41.000Z,280.34
2022-11-25T14:01:47.000Z,280.34
2022-11-25T14:03:14.000Z,280.34
2022-11-25T14:05:20.000Z,280.34
2022-11-25T14:06:46.000Z,280.34
2022-11-25T14:08:53.000Z,280.27
2022-11-25T14:10:19.000Z,280.27
2022-11-25T14:12:25.000Z,280.27
2022-11-25T14:13:52.000Z,280.27
2022-11-25T14:15:58.000Z,280.21
2022-11-25T14:17:31.000Z,280.21
2022-11-25T14:19:37.000Z,280.21
2022-11-25T14:21:17.000Z,280.21
2022-11-25T14:23:23.000Z,280.15
2022-11-25T14:26:14.000Z,280.09
2022-11-25T14:28:12.000Z,280.09
2022-11-25T14:30:18.000Z,280.02
2022-11-25T14:31:45.000Z,280.02
2022-11-25T14:33:51.000Z,280.02
2022-11-25T14:35:17.000Z,280.02
2022-11-25T14:37:23.000Z,280.09
2022-11-25T14:38:50.000Z,280.02
2022-11-25T14:40:56.000Z,279.96
2022-11-25T14:42:23.000Z,279.96
2022-11-25T14:44:29.000Z,279.9
2022-11-25T14:45:55.000Z,279.9
2022-11-25T14:48:02.000Z,279.9
2022-11-25T14:49:28.000Z,279.9
2022-11-25T14:51:59.000Z,279.77
2022-11-25T14:53:26.000Z,279.77
2022-11-25T14:55:32.000Z,279.71
2022-11-25T14:56:58.000Z,279.71
2022-11-25T14:59:05.000Z,279.59
2022-11-25T15:00:31.000Z,279.52
2022-11-25T15:02:37.000Z,279.46
2022-11-25T15:05:28.000Z,279.4
2022-11-25T15:06:55.000Z,279.46
2022-11-25T15:09:01.000Z,279.4
2022-11-25T15:10:27.000Z,279.34
2022-11-25T15:12:33.000Z,279.27
2022-11-25T15:14:06.000Z,279.27
2022-11-25T15:16:12.000Z,279.27
2022-11-25T15:17:39.000Z,279.27
2022-11-25T15:19:45.000Z,279.27
2022-11-25T15:21:11.000Z,279.27
2022-11-25T15:23:17.000Z,279.27
2022-11-25T15:24:44.000Z,279.27
2022-11-25T15:26:58.000Z,279.21
2022-11-25T15:28:25.000Z,279.21
2022-11-25T15:30:31.000Z,279.15
2022-11-25T15:31:57.000Z,279.15
2022-11-25T15:34:04.000Z,279.09
2022-11-25T15:35:30.000Z,279.09
2022-11-25T15:37:36.000Z,279.02
2022-11-25T15:39:03.000Z,278.96
2022-11-25T15:41:09.000Z,278.96
2022-11-25T15:44:00.000Z,278.96
2022-11-25T15:45:26.000Z,278.96
2022-11-25T15:47:33.000Z,279.02
2022-11-25T15:48:59.000Z,279.02
2022-11-25T15:51:05.000Z,278.96
2022-11-25T15:52:32.000Z,279.02
2022-11-25T15:54:38.000Z,278.96
2022-11-25T15:56:04.000Z,278.96
2022-11-25T15:58:10.000Z,278.96
2022-11-25T15:59:37.000Z,279.02
2022-11-25T16:01:43.000Z,278.96
2022-11-25T16:03:10.000Z,278.96
2022-11-25T16:05:16.000Z,278.96
2022-11-25T16:06:42.000Z,278.96
2022-11-25T16:08:48.000Z,278.96
2022-11-25T16:10:15.000Z,279.02
2022-11-25T16:12:21.000Z,279.02
2022-11-25T16:13:48.000Z,279.09
2022-11-25T16:15:54.000Z,279.09
2022-11-25T16:17:20.000Z,279.02
2022-11-25T16:19:27.000Z,279.02
2022-11-25T16:22:24.000Z,279.02
2022-11-25T16:23:50.000Z,278.96
2022-11-25T16:25:56.000Z,279.02
2022-11-25T16:27:23.000Z,279.02
2022-11-25T16:29:29.000Z,279.02
2022-11-25T16:30:56.000Z,278.96
2022-11-25T16:33:03.000Z,278.96
2022-11-25T16:34:30.000Z,278.96
2022-11-25T16:36:36.000Z,278.96
2022-11-25T16:38:02.000Z,278.96
2022-11-25T16:40:09.000Z,279.02
2022-11-25T16:41:35.000Z,278.96
2022-11-25T16:43:41.000Z,278.9
2022-11-25T16:45:08.000Z,278.9
2022-11-25T16:47:14.000Z,278.84
2022-11-25T16:48:40.000Z,278.84
2022-11-25T16:50:46.000Z,278.77
2022-11-25T16:52:13.000Z,278.77
2022-11-25T16:54:19.000Z,278.77
2022-11-25T16:55:46.000Z,278.71
2022-11-25T16:57:52.000Z,278.65
2022-11-25T17:00:43.000Z,278.59
2022-11-25T17:02:09.000Z,278.46
2022-11-25T17:04:16.000Z,278.4
2022-11-25T17:05:42.000Z,278.27
2022-11-25T17:07:48.000Z,278.15
2022-11-25T17:09:15.000Z,278.15
2022-11-25T17:11:21.000Z,278.09
2022-11-25T17:12:47.000Z,278.02
2022-11-25T17:14:53.000Z,277.96
2022-11-25T17:16:20.000Z,277.9
2022-11-25T17:18:27.000Z,277.96
2022-11-25T17:19:53.000Z,277.9
2022-11-25T17:21:59.000Z,277.84
2022-11-25T17:23:26.000Z,277.77
2022-11-25T17:25:32.000Z,277.71
2022-11-25T17:27:01.000Z,277.71
2022-11-25T17:29:07.000Z,277.71
2022-11-25T17:30:34.000Z,277.65
2022-11-25T17:32:40.000Z,277.65
2022-11-25T17:34:07.000Z,277.71
2022-11-25T17:36:13.000Z,277.77
2022-11-25T17:39:04.000Z,277.84
2022-11-25T17:40:30.000Z,277.84
2022-11-25T17:42:36.000Z,277.84
2022-11-25T17:44:03.000Z,277.84
2022-11-25T17:46:09.000Z,277.84
2022-11-25T17:47:36.000Z,277.84
2022-11-25T17:49:42.000Z,277.84
2022-11-25T17:51:08.000Z,277.84
2022-11-25T17:53:14.000Z,277.84
2022-11-25T17:54:41.000Z,277.84
2022-11-25T17:56:47.000Z,277.77
2022-11-25T17:58:17.000Z,277.77
2022-11-25T18:00:23.000Z,277.77
2022-11-25T18:01:49.000Z,277.77
2022-11-25T18:03:55.000Z,277.77
2022-11-25T18:05:22.000Z,277.77
2022-11-25T18:07:28.000Z,277.77
2022-11-25T18:08:55.000Z,277.77
2022-11-25T18:11:01.000Z,277.77
2022-11-25T18:12:28.000Z,277.77
2022-11-25T18:14:34.000Z,277.77
2022-11-25T18:17:26.000Z,277.77
2022-11-25T18:18:52.000Z,277.84
2022-11-25T18:20:58.000Z,277.77
2022-11-25T18:22:25.000Z,277.77
2022-11-25T18:24:31.000Z,277.77
2022-11-25T18:25:58.000Z,277.77
2022-11-25T18:28:04.000Z,277.77
2022-11-25T18:29:30.000Z,277.77
2022-11-25T18:31:36.000Z,277.77
2022-11-25T18:33:03.000Z,277.77
2022-11-25T18:35:09.000Z,277.77
2022-11-25T18:36:36.000Z,277.84
2022-11-25T18:38:42.000Z,277.84
2022-11-25T18:40:08.000Z,277.84
2022-11-25T18:42:14.000Z,277.96
2022-11-25T18:43:41.000Z,277.96
2022-11-25T18:45:47.000Z,278.09
2022-11-25T18:47:14.000Z,278.21
2022-11-25T18:49:20.000Z,278.46
2022-11-25T18:50:46.000Z,278.65
2022-11-25T18:52:52.000Z,278.71
2022-11-25T18:55:44.000Z,278.84
2022-11-25T18:57:10.000Z,278.84
2022-11-25T18:59:16.000Z,278.77
2022-11-25T19:00:43.000Z,278.77
2022-11-25T19:02:49.000Z,278.77
2022-11-25T19:04:15.000Z,278.65
2022-11-25T19:06:21.000Z,278.65
2022-11-25T19:07:48.000Z,278.71
2022-11-25T19:09:54.000Z,278.77
2022-11-25T19:11:21.000Z,278.59
2022-11-25T19:13:27.000Z,278.59
2022-11-25T19:14:53.000Z,278.52
2022-11-25T19:16:59.000Z,278.46
2022-11-25T19:18:26.000Z,278.52
2022-11-25T19:20:32.000Z,278.59
2022-11-25T19:21:59.000Z,278.65
2022-11-25T19:24:05.000Z,278.52
2022-11-25T19:25:31.000Z,278.59
2022-11-25T19:27:37.000Z,278.4
2022-11-25T19:29:04.000Z,278.34
2022-11-25T19:31:10.000Z,278.21
2022-11-25T19:34:01.000Z,278.15
2022-11-25T19:35:27.000Z,278.09
2022-11-25T19:37:34.000Z,278.02
2022-11-25T19:39:00.000Z,277.96
2022-11-25T19:41:06.000Z,277.9
2022-11-25T19:42:33.000Z,277.84
2022-11-25T19:44:39.000Z,277.84
2022-11-25T19:46:05.000Z,277.84
2022-11-25T19:48:12.000Z,277.9
2022-11-25T19:49:38.000Z,277.9
2022-11-25T19:51:44.000Z,277.9
2022-11-25T19:53:11.000Z,277.9
2022-11-25T19:55:17.000Z,277.96
2022-11-25T19:56:43.000Z,277.96
2022-11-25T19:58:49.000Z,278.09
2022-11-25T20:00:16.000Z,278.02
2022-11-25T20:02:22.000Z,277.96
2022-11-25T20:03:49.000Z,277.9
2022-11-25T20:05:55.000Z,278.02
2022-11-25T20:07:21.000Z,278.02
2022-11-25T20:09:28.000Z,278.02
2022-11-25T20:12:19.000Z,277.96
2022-11-25T20:13:45.000Z,277.96
2022-11-25T20:15:51.000Z,277.96
2022-11-25T20:17:18.000Z,277.96
2022-11-25T20:19:24.000Z,277.96
2022-11-25T20:20:50.000Z,278.21
2022-11-25T20:22:57.000Z,278.52
2022-11-25T20:24:23.000Z,278.59
2022-11-25T20:26:29.000Z,278.65
2022-11-25T20:27:56.000Z,278.65
2022-11-25T20:30:02.000Z,278.77
2022-11-25T20:31:28.000Z,278.9
2022-11-25T20:33:35.000Z,278.96
2022-11-25T20:35:01.000Z,278.96
2022-11-25T20:37:07.000Z,279.02
2022-11-25T20:38:34.000Z,279.02
2022-11-25T20:40:40.000Z,278.9
2022-11-25T20:42:07.000Z,278.9
2022-11-25T20:44:13.000Z,278.96
2022-11-25T20:45:39.000Z,278.96
2022-11-25T20:47:46.000Z,278.84
2022-11-25T20:50:37.000Z,278.71
2022-11-25T20:52:03.000Z,278.59
2022-11-25T20:54:09.000Z,278.34
2022-11-25T20:55:36.000Z,278.21
2022-11-25T20:57:42.000Z,278.21
2022-11-25T20:59:09.000Z,278.15
2022-11-25T21:01:15.000Z,278.09
2022-11-25T21:02:41.000Z,278.09
2022-11-25T21:04:47.000Z,278.02
2022-11-25T21:06:14.000Z,277.96
2022-11-25T21:08:20.000Z,277.96
2022-11-25T21:09:47.000Z,277.96
2022-11-25T21:11:53.000Z,277.96
2022-11-25T21:13:19.000Z,277.96
2022-11-25T21:15:25.000Z,277.9
2022-11-25T21:16:52.000Z,277.84
2022-11-25T21:18:58.000Z,277.77
2022-11-25T21:20:25.000Z,277.71
2022-11-25T21:22:31.000Z,277.65
2022-11-25T21:24:04.000Z,277.59
2022-11-25T21:26:10.000Z,277.46
2022-11-25T21:29:01.000Z,277.46
2022-11-25T21:30:27.000Z,277.46
2022-11-25T21:32:34.000Z,277.4
2022-11-25T21:34:00.000Z,277.34
2022-11-25T21:36:06.000Z,277.34
2022-11-25T21:37:33.000Z,277.27
2022-11-25T21:39:39.000Z,277.21
2022-11-25T21:41:05.000Z,277.21
2022-11-25T21:43:11.000Z,277.15
2022-11-25T21:44:45.000Z,277.15
2022-11-25T21:46:51.000Z,277.15
2022-11-25T21:48:18.000Z,277.21
2022-11-25T21:50:24.000Z,277.21
2022-11-25T21:51:50.000Z,277.27
2022-11-25T21:53:56.000Z,277.27
2022-11-25T21:55:23.000Z,277.34
2022-11-25T21:57:29.000Z,277.27
2022-11-25T21:58:56.000Z,277.34
2022-11-25T22:01:02.000Z,277.34
2022-11-25T22:02:28.000Z,277.34
2022-11-25T22:04:35.000Z,277.34
2022-11-25T22:07:26.000Z,277.34
2022-11-25T22:08:55.000Z,277.34
2022-11-25T22:11:01.000Z,277.4
2022-11-25T22:12:28.000Z,277.4
2022-11-25T22:14:34.000Z,277.4
2022-11-25T22:16:01.000Z,277.4
2022-11-25T22:18:07.000Z,277.4
2022-11-25T22:19:33.000Z,277.4
2022-11-25T22:21:40.000Z,277.4
2022-11-25T22:23:06.000Z,277.4
2022-11-25T22:25:12.000Z,277.4
2022-11-25T22:26:39.000Z,277.46
2022-11-25T22:28:45.000Z,277.46
2022-11-25T22:30:11.000Z,277.46
2022-11-25T22:32:17.000Z,277.46
2022-11-25T22:33:44.000Z,277.46
2022-11-25T22:35:50.000Z,277.46
2022-11-25T22:37:17.000Z,277.46
2022-11-25T22:39:23.000Z,277.52
2022-11-25T22:40:49.000Z,277.52
2022-11-25T22:42:55.000Z,277.59
2022-11-25T22:45:47.000Z,277.52
2022-11-25T22:47:13.000Z,277.52
2022-11-25T22:49:19.000Z,277.52
2022-11-25T22:50:46.000Z,277.46
2022-11-25T22:52:52.000Z,277.46
2022-11-25T22:54:18.000Z,277.4